createdAt,value
2018-08-16T00:02:22.200Z,30.75
2018-08-16T00:04:53.936Z,30.74
2018-08-16T00:07:25.923Z,30.77
2018-08-16T00:09:57.585Z,30.74
2018-08-16T00:12:29.932Z,30.73
2018-08-16T00:15:01.978Z,30.71
2018-08-16T00:17:33.903Z,30.70
2018-08-16T00:20:05.735Z,30.69
2018-08-16T00:22:37.966Z,30.71
2018-08-16T00:25:10.565Z,30.70
2018-08-16T00:27:42.554Z,30.69
2018-08-16T00:30:16.862Z,30.68
2018-08-16T00:32:49.006Z,30.69
2018-08-16T00:35:20.679Z,30.69
2018-08-16T00:37:52.601Z,30.71
2018-08-16T00:40:26.311Z,30.68
2018-08-16T00:42:58.011Z,30.68
2018-08-16T00:45:29.825Z,30.67
2018-08-16T00:48:01.646Z,30.68
2018-08-16T00:50:33.280Z,30.64
2018-08-16T00:53:06.018Z,30.63
2018-08-16T00:55:37.704Z,30.63
2018-08-16T00:58:09.682Z,30.63
2018-08-16T01:00:41.866Z,30.64
2018-08-16T01:03:13.722Z,30.61
2018-08-16T01:05:45.555Z,30.64
2018-08-16T01:08:17.277Z,30.59
2018-08-16T01:10:49.035Z,30.58
2018-08-16T01:13:20.544Z,30.59
2018-08-16T01:15:52.368Z,30.58
2018-08-16T01:18:24.314Z,30.59
2018-08-16T01:20:56.195Z,30.58
2018-08-16T01:23:29.332Z,30.57
2018-08-16T01:26:01.021Z,30.58
2018-08-16T01:28:33.414Z,30.57
2018-08-16T01:31:06.513Z,30.59
2018-08-16T01:33:39.545Z,30.57
2018-08-16T01:36:11.211Z,30.58
2018-08-16T01:38:46.032Z,30.58
2018-08-16T01:41:21.331Z,30.58
2018-08-16T01:43:54.135Z,30.56
2018-08-16T01:46:27.224Z,30.55
2018-08-16T01:49:02.470Z,30.53
2018-08-16T01:51:36.737Z,30.51
2018-08-16T01:54:09.597Z,30.53
2018-08-16T01:56:41.186Z,30.53
2018-08-16T01:59:13.239Z,30.52
2018-08-16T02:01:46.205Z,30.51
2018-08-16T02:04:20.010Z,30.50
2018-08-16T02:06:53.999Z,30.51
2018-08-16T02:09:26.865Z,30.51
2018-08-16T02:12:05.582Z,30.51
2018-08-16T02:14:39.395Z,30.52
2018-08-16T02:17:11.082Z,30.54
2018-08-16T02:19:42.796Z,30.51
2018-08-16T02:22:14.759Z,30.52
2018-08-16T02:24:49.468Z,30.51
2018-08-16T02:27:21.227Z,30.51
2018-08-16T02:29:53.797Z,30.52
2018-08-16T02:32:26.500Z,30.52
2018-08-16T02:34:58.485Z,30.51
2018-08-16T02:37:31.792Z,30.49
2018-08-16T02:40:03.826Z,30.50
2018-08-16T02:42:36.215Z,30.50
2018-08-16T02:45:10.313Z,30.50
2018-08-16T02:47:42.037Z,30.49
2018-08-16T02:50:16.331Z,30.49
2018-08-16T02:52:47.764Z,30.46
2018-08-16T02:55:19.676Z,30.48
2018-08-16T02:57:53.734Z,30.48
2018-08-16T03:00:25.644Z,30.49
2018-08-16T03:02:57.108Z,30.48
2018-08-16T03:05:28.549Z,30.48
2018-08-16T03:08:01.459Z,30.49
2018-08-16T03:10:33.124Z,30.48
2018-08-16T03:13:04.846Z,30.52
2018-08-16T03:15:36.753Z,30.51
2018-08-16T03:18:08.548Z,30.51
2018-08-16T03:20:40.364Z,30.52
2018-08-16T03:23:12.178Z,30.52
2018-08-16T03:25:44.275Z,30.51
2018-08-16T03:28:15.883Z,30.50
2018-08-16T03:30:47.561Z,30.53
2018-08-16T03:33:20.048Z,30.57
2018-08-16T03:35:51.868Z,30.57
2018-08-16T03:38:24.224Z,30.56
2018-08-16T03:40:56.048Z,30.56
2018-08-16T03:43:27.643Z,30.57
2018-08-16T03:45:59.472Z,30.59
2018-08-16T03:48:30.981Z,30.58
2018-08-16T03:51:03.036Z,30.57
2018-08-16T03:53:34.899Z,30.60
2018-08-16T03:56:06.727Z,30.61
2018-08-16T03:58:38.321Z,30.60
2018-08-16T04:01:11.326Z,30.61
2018-08-16T04:03:43.470Z,30.64
2018-08-16T04:06:16.096Z,30.70
2018-08-16T04:08:48.312Z,30.67
2018-08-16T04:11:20.588Z,30.65
2018-08-16T04:13:52.573Z,30.65
2018-08-16T04:16:25.574Z,30.67
2018-08-16T04:18:57.392Z,30.67
2018-08-16T04:21:29.225Z,30.65
2018-08-16T04:24:01.367Z,30.68
2018-08-16T04:26:33.884Z,30.67
2018-08-16T04:29:06.072Z,30.65
2018-08-16T04:31:42.669Z,30.70
2018-08-16T04:34:14.650Z,30.72
2018-08-16T04:36:46.599Z,30.75
2018-08-16T04:39:18.312Z,30.76
2018-08-16T04:41:50.311Z,30.74
2018-08-16T04:44:22.616Z,30.75
2018-08-16T04:46:54.330Z,30.49
2018-08-16T04:49:25.991Z,30.54
2018-08-16T04:51:58.144Z,30.55
2018-08-16T04:54:29.698Z,30.64
2018-08-16T04:57:01.762Z,30.66
2018-08-16T04:59:33.529Z,30.71
2018-08-16T05:02:05.617Z,30.72
2018-08-16T05:04:37.828Z,30.73
2018-08-16T05:07:09.596Z,30.73
2018-08-16T05:09:42.552Z,30.73
2018-08-16T05:12:14.267Z,30.76
2018-08-16T05:14:45.710Z,30.76
2018-08-16T05:17:17.621Z,30.75
2018-08-16T05:19:49.119Z,30.79
2018-08-16T05:22:21.048Z,30.80
2018-08-16T05:24:52.767Z,30.80
2018-08-16T05:27:24.908Z,30.82
2018-08-16T05:29:57.378Z,30.81
2018-08-16T05:32:29.244Z,30.80
2018-08-16T05:35:01.021Z,30.84
2018-08-16T05:37:33.034Z,30.85
2018-08-16T05:40:04.953Z,30.84
2018-08-16T05:42:37.036Z,30.83
2018-08-16T05:45:09.282Z,30.85
2018-08-16T05:47:42.122Z,30.85
2018-08-16T05:50:14.088Z,30.88
2018-08-16T05:52:45.695Z,30.87
2018-08-16T05:55:17.391Z,30.88
2018-08-16T05:57:49.286Z,30.87
2018-08-16T06:00:21.324Z,30.91
2018-08-16T06:02:53.196Z,30.91
2018-08-16T06:05:24.995Z,30.92
2018-08-16T06:07:56.946Z,30.93
2018-08-16T06:10:29.268Z,30.91
2018-08-16T06:13:01.320Z,30.92
2018-08-16T06:15:33.237Z,30.92
2018-08-16T06:18:05.285Z,30.94
2018-08-16T06:20:37.168Z,30.95
2018-08-16T06:23:09.038Z,30.95
2018-08-16T06:25:40.958Z,30.96
2018-08-16T06:28:13.570Z,30.97
2018-08-16T06:30:45.323Z,30.95
2018-08-16T06:33:17.333Z,30.95
2018-08-16T06:35:49.146Z,30.99
2018-08-16T06:38:21.923Z,30.99
2018-08-16T06:40:54.601Z,31.00
2018-08-16T06:43:26.802Z,31.02
2018-08-16T06:45:59.125Z,31.01
2018-08-16T06:48:31.339Z,31.04
2018-08-16T06:51:03.362Z,31.04
2018-08-16T06:53:35.308Z,31.03
2018-08-16T06:56:07.370Z,31.04
2018-08-16T06:58:39.338Z,31.04
2018-08-16T07:01:11.455Z,31.03
2018-08-16T07:03:45.022Z,31.05
2018-08-16T07:06:18.199Z,31.07
2018-08-16T07:08:51.008Z,31.06
2018-08-16T07:11:24.959Z,31.08
2018-08-16T07:13:57.167Z,31.10
2018-08-16T07:16:29.711Z,31.10
2018-08-16T07:19:02.406Z,31.10
2018-08-16T07:21:34.559Z,31.12
2018-08-16T07:24:06.451Z,31.13
2018-08-16T07:26:39.424Z,31.13
2018-08-16T07:29:11.659Z,31.14
2018-08-16T07:31:44.617Z,31.16
2018-08-16T07:34:17.202Z,31.17
2018-08-16T07:36:49.737Z,31.18
2018-08-16T07:39:22.827Z,31.18
2018-08-16T07:41:55.695Z,31.18
2018-08-16T07:44:27.888Z,31.18
2018-08-16T07:47:00.230Z,31.18
2018-08-16T07:49:32.676Z,31.19
2018-08-16T07:52:05.613Z,31.19
2018-08-16T07:54:38.339Z,31.20
2018-08-16T07:57:11.090Z,31.20
2018-08-16T07:59:43.188Z,31.19
2018-08-16T08:02:15.176Z,31.19
2018-08-16T08:04:47.090Z,31.20
2018-08-16T08:07:19.225Z,31.22
2018-08-16T08:09:51.391Z,31.22
2018-08-16T08:12:23.603Z,31.25
2018-08-16T08:14:56.191Z,31.28
2018-08-16T08:17:28.858Z,31.29
2018-08-16T08:20:00.594Z,31.29
2018-08-16T08:22:32.379Z,31.29
2018-08-16T08:25:04.287Z,31.32
2018-08-16T08:27:36.350Z,31.32
2018-08-16T08:30:11.316Z,31.33
2018-08-16T08:32:43.325Z,31.32
2018-08-16T08:35:15.399Z,31.32
2018-08-16T08:37:57.005Z,31.33
2018-08-16T08:40:28.732Z,31.34
2018-08-16T08:43:00.599Z,31.34
2018-08-16T08:45:34.140Z,31.34
2018-08-16T08:48:05.882Z,31.37
2018-08-16T08:50:37.960Z,31.38
2018-08-16T08:53:19.399Z,31.38
2018-08-16T08:56:00.748Z,31.38
2018-08-16T08:58:52.639Z,31.39
2018-08-16T09:01:24.665Z,31.41
2018-08-16T09:03:56.623Z,31.42
2018-08-16T09:06:28.415Z,31.44
2018-08-16T09:09:00.258Z,31.47
2018-08-16T09:11:41.800Z,31.40
2018-08-16T09:14:22.956Z,31.43
2018-08-16T09:16:54.679Z,31.45
2018-08-16T09:19:26.537Z,31.43
2018-08-16T09:21:58.273Z,31.45
2018-08-16T09:24:30.117Z,31.47
2018-08-16T09:27:02.129Z,31.47
2018-08-16T09:30:42.857Z,31.49
2018-08-16T09:33:24.387Z,31.52
2018-08-16T09:35:56.900Z,31.50
2018-08-16T09:38:29.083Z,31.51
2018-08-16T09:41:01.786Z,31.54
2018-08-16T09:43:33.945Z,31.55
2018-08-16T09:47:15.156Z,31.55
2018-08-16T09:49:50.567Z,31.57
2018-08-16T09:52:23.085Z,31.58
2018-08-16T09:54:55.411Z,31.60
2018-08-16T09:57:27.019Z,31.63
2018-08-16T09:59:59.505Z,31.61
2018-08-16T10:02:32.092Z,31.60
2018-08-16T10:05:04.020Z,31.57
2018-08-16T10:07:35.719Z,31.60
2018-08-16T10:10:07.537Z,31.62
2018-08-16T10:12:39.361Z,31.65
2018-08-16T10:15:11.540Z,31.67
2018-08-16T10:17:44.503Z,31.67
2018-08-16T10:23:26.333Z,31.70
2018-08-16T10:25:58.281Z,31.71
2018-08-16T10:28:30.206Z,31.72
2018-08-16T10:31:01.982Z,31.75
2018-08-16T10:33:33.824Z,31.77
2018-08-16T10:36:05.946Z,31.78
2018-08-16T10:38:38.263Z,31.77
2018-08-16T10:41:10.017Z,31.78
2018-08-16T10:43:41.897Z,31.76
2018-08-16T10:46:13.624Z,31.75
2018-08-16T10:48:45.716Z,31.72
2018-08-16T10:51:17.493Z,31.71
2018-08-16T10:53:49.267Z,31.69
2018-08-16T10:56:20.957Z,31.69
2018-08-16T10:58:52.716Z,31.69
2018-08-16T11:01:24.988Z,31.69
2018-08-16T11:03:57.150Z,31.67
2018-08-16T11:06:28.761Z,31.67
2018-08-16T11:09:00.778Z,31.66
2018-08-16T11:11:32.835Z,31.66
2018-08-16T11:14:04.677Z,31.66
2018-08-16T11:16:36.602Z,31.67
2018-08-16T11:19:08.347Z,31.67
2018-08-16T11:21:40.176Z,31.67
2018-08-16T11:24:12.034Z,31.66
2018-08-16T11:26:43.915Z,31.67
2018-08-16T11:29:15.555Z,31.65
2018-08-16T11:31:47.907Z,31.67
2018-08-16T11:34:19.701Z,31.65
2018-08-16T11:36:51.165Z,31.68
2018-08-16T11:39:23.008Z,31.66
2018-08-16T11:41:54.662Z,31.66
2018-08-16T11:44:26.556Z,31.67
2018-08-16T11:46:58.213Z,31.65
2018-08-16T11:49:30.546Z,31.66
2018-08-16T11:52:02.243Z,31.66
2018-08-16T11:54:34.112Z,31.66
2018-08-16T11:57:06.575Z,31.66
2018-08-16T11:59:38.191Z,31.69
2018-08-16T12:02:10.050Z,31.69
2018-08-16T12:04:43.013Z,31.72
2018-08-16T12:07:14.725Z,31.70
2018-08-16T12:09:46.568Z,31.71
2018-08-16T12:12:18.020Z,31.70
2018-08-16T12:14:49.904Z,31.70
2018-08-16T12:17:21.694Z,31.71
2018-08-16T12:19:53.962Z,31.72
2018-08-16T12:22:25.480Z,31.70
2018-08-16T12:24:57.359Z,31.71
2018-08-16T12:27:29.266Z,31.71
2018-08-16T12:30:01.105Z,31.71
2018-08-16T12:32:33.139Z,31.72
2018-08-16T12:35:05.457Z,31.71
2018-08-16T12:37:37.160Z,31.72
2018-08-16T12:40:09.512Z,31.75
2018-08-16T12:42:41.172Z,31.75
2018-08-16T12:45:13.155Z,31.73
2018-08-16T12:47:44.919Z,31.76
2018-08-16T12:50:16.991Z,31.74
2018-08-16T12:52:48.799Z,31.77
2018-08-16T12:55:20.423Z,31.76
2018-08-16T12:57:52.121Z,31.78
2018-08-16T13:00:23.791Z,31.78
2018-08-16T13:02:55.807Z,31.78
2018-08-16T13:05:27.757Z,31.78
2018-08-16T13:07:59.535Z,31.78
2018-08-16T13:10:31.380Z,31.77
2018-08-16T13:13:03.140Z,31.78
2018-08-16T13:15:35.245Z,31.79
2018-08-16T13:18:07.232Z,31.77
2018-08-16T13:20:39.076Z,31.71
2018-08-16T13:23:10.835Z,31.73
2018-08-16T13:25:42.663Z,31.73
2018-08-16T13:28:14.793Z,31.75
2018-08-16T13:30:46.853Z,31.77
2018-08-16T13:33:18.733Z,31.79
2018-08-16T13:35:50.571Z,31.79
2018-08-16T13:38:22.326Z,31.80
2018-08-16T13:40:54.292Z,31.81
2018-08-16T13:43:26.064Z,31.82
2018-08-16T13:45:57.982Z,31.83
2018-08-16T13:48:30.200Z,31.82
2018-08-16T13:51:02.332Z,31.83
2018-08-16T13:53:34.393Z,31.80
2018-08-16T13:56:06.456Z,31.81
2018-08-16T13:58:38.601Z,31.80
2018-08-16T14:01:11.056Z,31.81
2018-08-16T14:03:43.079Z,31.82
2018-08-16T14:06:14.877Z,31.83
2018-08-16T14:08:46.557Z,31.86
2018-08-16T14:11:18.620Z,31.82
2018-08-16T14:13:50.213Z,31.87
2018-08-16T14:16:22.178Z,31.87
2018-08-16T14:18:54.055Z,31.86
2018-08-16T14:21:25.902Z,31.89
2018-08-16T14:23:57.817Z,31.89
2018-08-16T14:26:29.511Z,31.87
2018-08-16T14:29:01.223Z,31.90
2018-08-16T14:31:32.874Z,31.86
2018-08-16T14:34:04.450Z,31.91
2018-08-16T14:36:36.358Z,31.87
2018-08-16T14:39:12.573Z,31.91
2018-08-16T14:41:44.797Z,31.90
2018-08-16T14:44:16.503Z,31.89
2018-08-16T14:46:48.349Z,31.86
2018-08-16T14:49:20.037Z,31.87
2018-08-16T14:51:52.009Z,31.92
2018-08-16T14:54:23.530Z,31.91
2018-08-16T14:56:55.581Z,31.91
2018-08-16T14:59:27.068Z,31.90
2018-08-16T15:01:58.881Z,31.89
2018-08-16T15:04:31.134Z,31.92
2018-08-16T15:07:03.121Z,31.91
2018-08-16T15:09:34.903Z,31.90
2018-08-16T15:12:07.128Z,31.90
2018-08-16T15:14:38.748Z,31.85
2018-08-16T15:17:10.766Z,31.91
2018-08-16T15:19:42.701Z,31.92
2018-08-16T15:22:14.285Z,31.91
2018-08-16T15:24:46.087Z,31.88
2018-08-16T15:27:17.648Z,31.89
2018-08-16T15:29:49.290Z,31.91
2018-08-16T15:32:21.409Z,31.90
2018-08-16T15:34:53.286Z,31.91
2018-08-16T15:37:25.514Z,31.91
2018-08-16T15:39:57.174Z,31.91
2018-08-16T15:42:29.267Z,31.90
2018-08-16T15:45:00.732Z,31.89
2018-08-16T15:47:32.863Z,31.89
2018-08-16T15:50:05.361Z,31.89
2018-08-16T15:52:37.374Z,31.91
2018-08-16T15:55:09.432Z,31.92
2018-08-16T15:57:41.378Z,31.92
2018-08-16T16:00:13.365Z,31.94
2018-08-16T16:02:45.197Z,31.94
2018-08-16T16:05:17.291Z,31.94
2018-08-16T16:07:49.148Z,31.95
2018-08-16T16:10:20.877Z,31.93
2018-08-16T16:12:52.612Z,31.93
2018-08-16T16:15:24.254Z,31.93
2018-08-16T16:17:56.472Z,31.92
2018-08-16T16:20:28.786Z,31.91
2018-08-16T16:23:00.631Z,31.92
2018-08-16T16:25:32.744Z,31.93
2018-08-16T16:28:04.805Z,31.93
2018-08-16T16:30:36.440Z,31.96
2018-08-16T16:33:08.536Z,31.93
2018-08-16T16:35:40.353Z,31.96
2018-08-16T16:38:12.304Z,31.97
2018-08-16T16:40:43.900Z,31.97
2018-08-16T16:43:15.631Z,31.97
2018-08-16T16:45:47.351Z,31.98
2018-08-16T16:48:19.608Z,31.98
2018-08-16T16:50:51.524Z,31.99
2018-08-16T16:53:23.797Z,31.97
2018-08-16T16:55:55.774Z,31.97
2018-08-16T16:58:27.936Z,31.97
2018-08-16T17:00:59.803Z,31.96
2018-08-16T17:03:31.757Z,31.96
2018-08-16T17:06:03.759Z,31.97
2018-08-16T17:08:35.930Z,31.96
2018-08-16T17:11:07.757Z,31.90
2018-08-16T17:13:39.647Z,31.93
2018-08-16T17:16:11.768Z,31.92
2018-08-16T17:18:43.671Z,31.95
2018-08-16T17:21:16.460Z,31.96
2018-08-16T17:23:48.287Z,31.95
2018-08-16T17:26:20.493Z,31.96
2018-08-16T17:28:52.319Z,31.97
2018-08-16T17:31:23.998Z,31.98
2018-08-16T17:33:56.053Z,31.97
2018-08-16T17:36:27.747Z,31.98
2018-08-16T17:38:59.729Z,31.86
2018-08-16T17:41:32.119Z,31.83
2018-08-16T17:44:04.267Z,31.88
2018-08-16T17:46:35.962Z,31.88
2018-08-16T17:49:08.002Z,31.91
2018-08-16T17:51:40.009Z,31.94
2018-08-16T18:01:12.164Z,31.94
2018-08-16T18:03:44.367Z,31.95
2018-08-16T18:06:16.326Z,31.97
2018-08-16T18:08:48.464Z,31.96
2018-08-16T18:11:20.432Z,31.93
2018-08-16T18:13:52.332Z,31.94
2018-08-16T18:16:24.154Z,31.97
2018-08-16T18:18:55.864Z,31.98
2018-08-16T18:21:27.736Z,31.97
2018-08-16T18:23:59.610Z,31.97
2018-08-16T18:26:31.436Z,31.87
2018-08-16T18:29:03.377Z,31.88
2018-08-16T18:31:35.182Z,31.88
2018-08-16T18:34:06.838Z,31.83
2018-08-16T18:36:38.537Z,31.84
2018-08-16T18:39:11.482Z,31.84
2018-08-16T18:41:43.251Z,31.84
2018-08-16T18:44:15.085Z,31.85
2018-08-16T18:46:46.935Z,31.80
2018-08-16T18:49:18.769Z,31.81
2018-08-16T18:51:50.538Z,31.86
2018-08-16T18:54:22.301Z,31.86
2018-08-16T18:56:54.147Z,31.88
2018-08-16T18:59:25.874Z,31.90
2018-08-16T19:01:57.875Z,31.90
2018-08-16T19:04:29.867Z,31.89
2018-08-16T19:07:01.671Z,31.89
2018-08-16T19:09:33.495Z,31.88
2018-08-16T19:12:05.143Z,31.90
2018-08-16T19:14:36.871Z,31.92
2018-08-16T19:17:09.634Z,31.93
2018-08-16T19:19:41.347Z,31.95
2018-08-16T19:22:13.389Z,31.95
2018-08-16T19:24:45.043Z,31.94
2018-08-16T19:27:16.917Z,31.94
2018-08-16T19:29:48.422Z,31.93
2018-08-16T19:32:20.485Z,31.93
2018-08-16T19:34:52.239Z,31.93
2018-08-16T19:37:24.407Z,31.94
2018-08-16T19:39:57.041Z,31.94
2018-08-16T19:42:28.956Z,31.83
2018-08-16T19:45:00.710Z,31.78
2018-08-16T19:47:32.541Z,31.85
2018-08-16T19:50:04.670Z,31.88
2018-08-16T19:52:36.368Z,31.89
2018-08-16T19:55:08.674Z,31.91
2018-08-16T19:57:40.512Z,31.93
2018-08-16T20:00:12.514Z,31.93
2018-08-16T20:02:44.370Z,31.92
2018-08-16T20:05:16.213Z,31.95
2018-08-16T20:07:48.103Z,31.93
2018-08-16T20:10:19.711Z,31.93
2018-08-16T20:12:51.527Z,31.93
2018-08-16T20:15:24.186Z,31.95
2018-08-16T20:17:55.932Z,31.95
2018-08-16T20:20:27.369Z,31.94
2018-08-16T20:22:59.480Z,31.93
2018-08-16T20:25:30.970Z,31.94
2018-08-16T20:28:02.769Z,31.93
2018-08-16T20:30:34.296Z,31.93
2018-08-16T20:33:06.117Z,31.93
2018-08-16T20:35:38.233Z,31.93
2018-08-16T20:38:10.032Z,31.92
2018-08-16T20:40:43.048Z,31.94
2018-08-16T20:43:14.969Z,31.94
2018-08-16T20:45:46.604Z,31.93
2018-08-16T20:48:18.546Z,31.91
2018-08-16T20:50:50.612Z,31.92
2018-08-16T20:53:22.443Z,31.93
2018-08-16T20:55:54.258Z,31.94
2018-08-16T20:58:26.098Z,31.94
2018-08-16T21:00:58.050Z,31.94
2018-08-16T21:03:30.330Z,31.93
2018-08-16T21:06:02.049Z,31.94
2018-08-16T21:08:33.742Z,31.93
2018-08-16T21:11:56.256Z,31.94
2018-08-16T21:14:28.182Z,31.96
2018-08-16T21:17:00.237Z,31.96
2018-08-16T21:19:32.105Z,31.96
2018-08-16T21:22:03.984Z,31.96
2018-08-16T21:24:35.742Z,31.95
2018-08-16T21:27:07.780Z,31.95
2018-08-16T21:29:39.951Z,31.96
2018-08-16T21:32:11.359Z,31.98
2018-08-16T21:34:43.258Z,31.95
2018-08-16T21:37:15.316Z,31.95
2018-08-16T21:39:47.122Z,31.94
2018-08-16T21:42:19.600Z,31.94
2018-08-16T21:44:51.556Z,31.95
2018-08-16T21:47:23.776Z,31.93
2018-08-16T21:49:55.546Z,31.93
2018-08-16T21:52:27.534Z,31.95
2018-08-16T21:54:59.317Z,31.94
2018-08-16T21:57:31.250Z,31.94
2018-08-16T22:00:03.599Z,31.92
2018-08-16T22:02:35.656Z,31.91
2018-08-16T22:05:07.385Z,31.94
2018-08-16T22:08:12.857Z,31.93
2018-08-16T22:10:45.209Z,31.93
2018-08-16T22:13:16.949Z,31.94
2018-08-16T22:15:48.903Z,31.94
2018-08-16T22:18:20.825Z,31.93
2018-08-16T22:20:52.832Z,31.93
2018-08-16T22:23:24.913Z,31.94
2018-08-16T22:25:56.724Z,31.91
2018-08-16T22:28:28.508Z,31.93
2018-08-16T22:31:00.925Z,31.93
2018-08-16T22:33:32.758Z,31.92
2018-08-16T22:36:04.820Z,31.92
2018-08-16T22:38:36.609Z,31.91
2018-08-16T22:41:08.507Z,31.92
2018-08-16T22:43:40.488Z,31.91
2018-08-16T22:46:12.178Z,31.91
2018-08-16T22:48:43.856Z,31.91
2018-08-16T22:51:15.959Z,31.91
2018-08-16T22:53:47.557Z,31.91
2018-08-16T22:56:19.433Z,31.90
2018-08-16T22:58:50.868Z,31.91
2018-08-16T23:01:22.961Z,31.91
2018-08-16T23:03:55.046Z,31.93
2018-08-16T23:06:26.805Z,31.90
2018-08-16T23:08:58.546Z,31.90
2018-08-16T23:11:30.145Z,31.90
2018-08-16T23:14:01.833Z,31.88
2018-08-16T23:16:33.439Z,31.86
2018-08-16T23:19:05.160Z,31.82
2018-08-16T23:21:36.998Z,31.74
2018-08-16T23:24:08.927Z,31.75
2018-08-16T23:26:40.705Z,31.73
2018-08-16T23:29:12.683Z,31.74
2018-08-16T23:31:44.415Z,31.77
2018-08-16T23:34:16.212Z,31.78
2018-08-16T23:36:48.359Z,31.81
2018-08-16T23:39:19.868Z,31.82
2018-08-16T23:41:51.645Z,31.82
2018-08-16T23:44:23.924Z,31.81
2018-08-16T23:46:55.862Z,31.81
2018-08-16T23:49:27.988Z,31.82
2018-08-16T23:52:00.274Z,31.82
2018-08-16T23:54:31.960Z,31.80
2018-08-16T23:57:03.646Z,31.81
2018-08-16T23:59:35.364Z,31.81
